sensor_id;sensor_type;location;lat;lon;timestamp;temperature;humidity
15384;DHT22;7790;53.022;12.968;2023-07-28T00:03:09;20.80;56.50
15384;DHT22;7790;53.022;12.968;2023-07-28T00:07:10;20.80;56.60
15384;DHT22;7790;53.022;12.968;2023-07-28T00:11:13;20.80;56.60
15384;DHT22;7790;53.022;12.968;2023-07-28T00:15:14;20.80;56.60
15384;DHT22;7790;53.022;12.968;2023-07-28T00:19:15;20.80;56.60
15384;DHT22;7790;53.022;12.968;2023-07-28T00:23:16;20.80;56.60
15384;DHT22;7790;53.022;12.968;2023-07-28T00:27:16;20.80;56.60
15384;DHT22;7790;53.022;12.968;2023-07-28T00:31:19;20.80;56.60
15384;DHT22;7790;53.022;12.968;2023-07-28T00:35:21;20.80;56.60
15384;DHT22;7790;53.022;12.968;2023-07-28T00:39:22;20.80;56.70
15384;DHT22;7790;53.022;12.968;2023-07-28T00:43:23;20.80;56.70
15384;DHT22;7790;53.022;12.968;2023-07-28T00:47:24;20.80;56.80
15384;DHT22;7790;53.022;12.968;2023-07-28T00:51:25;20.80;56.80
15384;DHT22;7790;53.022;12.968;2023-07-28T00:55:26;20.80;56.80
15384;DHT22;7790;53.022;12.968;2023-07-28T00:59:27;20.80;56.80
15384;DHT22;7790;53.022;12.968;2023-07-28T01:03:28;20.80;56.80
15384;DHT22;7790;53.022;12.968;2023-07-28T01:11:57;20.80;57.00
15384;DHT22;7790;53.022;12.968;2023-07-28T01:15:58;20.80;56.90
15384;DHT22;7790;53.022;12.968;2023-07-28T01:20:02;20.80;56.80
15384;DHT22;7790;53.022;12.968;2023-07-28T01:24:20;20.80;56.90
15384;DHT22;7790;53.022;12.968;2023-07-28T01:28:22;20.80;57.00
15384;DHT22;7790;53.022;12.968;2023-07-28T01:32:23;20.80;56.90
15384;DHT22;7790;53.022;12.968;2023-07-28T01:36:24;20.80;57.00
15384;DHT22;7790;53.022;12.968;2023-07-28T01:40:26;20.80;56.90
15384;DHT22;7790;53.022;12.968;2023-07-28T01:44:26;20.80;56.90
15384;DHT22;7790;53.022;12.968;2023-07-28T01:48:27;20.80;56.90
15384;DHT22;7790;53.022;12.968;2023-07-28T01:52:28;20.80;56.90
15384;DHT22;7790;53.022;12.968;2023-07-28T01:56:29;20.80;56.80
15384;DHT22;7790;53.022;12.968;2023-07-28T02:00:30;20.80;57.00
15384;DHT22;7790;53.022;12.968;2023-07-28T02:04:31;20.80;56.80
15384;DHT22;7790;53.022;12.968;2023-07-28T02:08:32;20.80;56.80
15384;DHT22;7790;53.022;12.968;2023-07-28T02:12:33;20.70;56.90
15384;DHT22;7790;53.022;12.968;2023-07-28T02:16:33;20.80;57.00
15384;DHT22;7790;53.022;12.968;2023-07-28T02:20:34;20.80;57.00
15384;DHT22;7790;53.022;12.968;2023-07-28T02:24:36;20.70;57.00
15384;DHT22;7790;53.022;12.968;2023-07-28T02:28:37;20.80;57.00
15384;DHT22;7790;53.022;12.968;2023-07-28T02:32:38;20.80;57.00
15384;DHT22;7790;53.022;12.968;2023-07-28T02:36:38;20.70;57.40
15384;DHT22;7790;53.022;12.968;2023-07-28T02:40:39;20.70;57.70
15384;DHT22;7790;53.022;12.968;2023-07-28T02:44:40;20.70;58.00
15384;DHT22;7790;53.022;12.968;2023-07-28T02:48:41;20.70;58.30
15384;DHT22;7790;53.022;12.968;2023-07-28T02:52:42;20.60;58.50
15384;DHT22;7790;53.022;12.968;2023-07-28T02:56:43;20.60;58.60
15384;DHT22;7790;53.022;12.968;2023-07-28T03:00:46;20.70;59.30
15384;DHT22;7790;53.022;12.968;2023-07-28T03:04:51;20.60;59.20
15384;DHT22;7790;53.022;12.968;2023-07-28T03:08:51;20.60;59.20
15384;DHT22;7790;53.022;12.968;2023-07-28T03:13:18;20.60;59.40
15384;DHT22;7790;53.022;12.968;2023-07-28T03:17:20;20.60;59.60
15384;DHT22;7790;53.022;12.968;2023-07-28T03:21:21;20.60;59.80
15384;DHT22;7790;53.022;12.968;2023-07-28T03:25:21;20.60;60.20
15384;DHT22;7790;53.022;12.968;2023-07-28T03:29:22;20.60;61.20
15384;DHT22;7790;53.022;12.968;2023-07-28T03:33:24;20.60;61.80
15384;DHT22;7790;53.022;12.968;2023-07-28T03:37:25;20.60;61.30
15384;DHT22;7790;53.022;12.968;2023-07-28T03:41:26;20.60;61.60
15384;DHT22;7790;53.022;12.968;2023-07-28T03:45:27;20.60;61.30
15384;DHT22;7790;53.022;12.968;2023-07-28T03:49:28;20.60;60.80
15384;DHT22;7790;53.022;12.968;2023-07-28T03:53:29;20.60;61.00
15384;DHT22;7790;53.022;12.968;2023-07-28T03:57:30;20.60;61.30
15384;DHT22;7790;53.022;12.968;2023-07-28T04:01:31;20.60;61.00
15384;DHT22;7790;53.022;12.968;2023-07-28T04:05:31;20.60;61.10
15384;DHT22;7790;53.022;12.968;2023-07-28T04:09:32;20.60;61.30
15384;DHT22;7790;53.022;12.968;2023-07-28T04:13:34;20.60;61.30
15384;DHT22;7790;53.022;12.968;2023-07-28T04:17:35;20.60;61.60
15384;DHT22;7790;53.022;12.968;2023-07-28T04:21:36;20.50;62.30
15384;DHT22;7790;53.022;12.968;2023-07-28T04:25:40;20.60;61.70
15384;DHT22;7790;53.022;12.968;2023-07-28T04:29:41;20.60;62.50
15384;DHT22;7790;53.022;12.968;2023-07-28T04:33:44;20.50;61.90
15384;DHT22;7790;53.022;12.968;2023-07-28T04:37:45;20.60;62.10
15384;DHT22;7790;53.022;12.968;2023-07-28T04:41:49;20.50;62.60
15384;DHT22;7790;53.022;12.968;2023-07-28T04:45:50;20.60;63.30
15384;DHT22;7790;53.022;12.968;2023-07-28T04:49:54;20.60;62.60
15384;DHT22;7790;53.022;12.968;2023-07-28T04:54:13;20.60;62.20
15384;DHT22;7790;53.022;12.968;2023-07-28T04:58:14;20.60;62.90
15384;DHT22;7790;53.022;12.968;2023-07-28T05:02:21;20.60;62.80
15384;DHT22;7790;53.022;12.968;2023-07-28T05:06:22;20.60;62.10
15384;DHT22;7790;53.022;12.968;2023-07-28T05:10:23;20.60;61.50
15384;DHT22;7790;53.022;12.968;2023-07-28T05:14:24;20.60;62.30
15384;DHT22;7790;53.022;12.968;2023-07-28T05:18:25;20.60;62.50
15384;DHT22;7790;53.022;12.968;2023-07-28T05:22:38;20.60;62.50
15384;DHT22;7790;53.022;12.968;2023-07-28T05:26:39;20.60;62.50
15384;DHT22;7790;53.022;12.968;2023-07-28T05:30:40;20.60;62.90
15384;DHT22;7790;53.022;12.968;2023-07-28T05:34:45;20.60;62.90
15384;DHT22;7790;53.022;12.968;2023-07-28T05:38:46;20.60;63.00
15384;DHT22;7790;53.022;12.968;2023-07-28T05:42:46;20.50;63.20
15384;DHT22;7790;53.022;12.968;2023-07-28T05:46:47;20.50;63.30
15384;DHT22;7790;53.022;12.968;2023-07-28T05:50:50;20.50;63.50
15384;DHT22;7790;53.022;12.968;2023-07-28T05:54:54;20.50;64.00
15384;DHT22;7790;53.022;12.968;2023-07-28T05:58:55;20.40;64.60
15384;DHT22;7790;53.022;12.968;2023-07-28T06:02:56;20.50;64.50
15384;DHT22;7790;53.022;12.968;2023-07-28T06:07:19;20.50;63.40
15384;DHT22;7790;53.022;12.968;2023-07-28T06:11:21;20.50;63.30
15384;DHT22;7790;53.022;12.968;2023-07-28T06:15:22;20.50;63.40
15384;DHT22;7790;53.022;12.968;2023-07-28T06:19:23;20.60;63.70
15384;DHT22;7790;53.022;12.968;2023-07-28T06:23:27;20.60;61.70
15384;DHT22;7790;53.022;12.968;2023-07-28T06:27:30;20.60;61.70
15384;DHT22;7790;53.022;12.968;2023-07-28T06:31:31;20.60;61.40
15384;DHT22;7790;53.022;12.968;2023-07-28T06:35:33;20.60;61.20
15384;DHT22;7790;53.022;12.968;2023-07-28T06:39:34;20.60;61.70
15384;DHT22;7790;53.022;12.968;2023-07-28T06:43:35;20.70;61.80
15384;DHT22;7790;53.022;12.968;2023-07-28T06:47:36;20.70;61.50
15384;DHT22;7790;53.022;12.968;2023-07-28T06:51:37;20.70;62.70
15384;DHT22;7790;53.022;12.968;2023-07-28T06:55:37;20.70;62.00
15384;DHT22;7790;53.022;12.968;2023-07-28T06:59:41;20.80;62.50
15384;DHT22;7790;53.022;12.968;2023-07-28T07:03:43;20.80;62.70
15384;DHT22;7790;53.022;12.968;2023-07-28T07:07:43;20.80;62.50
15384;DHT22;7790;53.022;12.968;2023-07-28T07:11:44;20.80;63.10
15384;DHT22;7790;53.022;12.968;2023-07-28T07:15:46;20.80;63.40
15384;DHT22;7790;53.022;12.968;2023-07-28T07:19:47;20.80;63.70
15384;DHT22;7790;53.022;12.968;2023-07-28T07:23:47;20.90;62.90
15384;DHT22;7790;53.022;12.968;2023-07-28T07:28:02;20.90;63.30
15384;DHT22;7790;53.022;12.968;2023-07-28T07:32:03;20.90;63.10
15384;DHT22;7790;53.022;12.968;2023-07-28T07:36:05;20.90;62.90
15384;DHT22;7790;53.022;12.968;2023-07-28T07:40:12;20.90;62.30
15384;DHT22;7790;53.022;12.968;2023-07-28T07:44:14;21.00;62.60
15384;DHT22;7790;53.022;12.968;2023-07-28T07:48:18;20.90;61.90
15384;DHT22;7790;53.022;12.968;2023-07-28T07:52:19;20.90;63.40
15384;DHT22;7790;53.022;12.968;2023-07-28T07:56:20;20.90;65.30
15384;DHT22;7790;53.022;12.968;2023-07-28T08:00:21;20.90;64.30
15384;DHT22;7790;53.022;12.968;2023-07-28T08:04:22;20.90;64.30
15384;DHT22;7790;53.022;12.968;2023-07-28T08:08:23;20.90;62.60
15384;DHT22;7790;53.022;12.968;2023-07-28T08:12:24;20.90;62.60
15384;DHT22;7790;53.022;12.968;2023-07-28T08:16:25;20.90;61.90
15384;DHT22;7790;53.022;12.968;2023-07-28T08:20:26;20.90;62.30
15384;DHT22;7790;53.022;12.968;2023-07-28T08:24:27;20.90;63.00
15384;DHT22;7790;53.022;12.968;2023-07-28T08:28:28;20.90;62.10
15384;DHT22;7790;53.022;12.968;2023-07-28T08:32:29;20.90;61.70
15384;DHT22;7790;53.022;12.968;2023-07-28T08:36:30;20.90;62.30
15384;DHT22;7790;53.022;12.968;2023-07-28T08:40:33;21.00;62.20
15384;DHT22;7790;53.022;12.968;2023-07-28T08:44:35;21.00;62.90
15384;DHT22;7790;53.022;12.968;2023-07-28T08:48:36;20.90;62.50
15384;DHT22;7790;53.022;12.968;2023-07-28T08:52:37;21.00;62.50
15384;DHT22;7790;53.022;12.968;2023-07-28T08:56:38;21.00;61.90
15384;DHT22;7790;53.022;12.968;2023-07-28T09:00:40;21.00;61.80
15384;DHT22;7790;53.022;12.968;2023-07-28T09:04:45;21.00;62.00
15384;DHT22;7790;53.022;12.968;2023-07-28T09:08:46;21.10;62.20
15384;DHT22;7790;53.022;12.968;2023-07-28T09:12:48;21.00;63.80
15384;DHT22;7790;53.022;12.968;2023-07-28T09:16:49;21.10;64.30
15384;DHT22;7790;53.022;12.968;2023-07-28T09:20:50;21.00;63.90
15384;DHT22;7790;53.022;12.968;2023-07-28T09:24:51;21.10;64.50
15384;DHT22;7790;53.022;12.968;2023-07-28T09:28:52;21.10;64.70
15384;DHT22;7790;53.022;12.968;2023-07-28T09:32:54;21.10;64.90
15384;DHT22;7790;53.022;12.968;2023-07-28T09:36:57;21.10;63.70
15384;DHT22;7790;53.022;12.968;2023-07-28T09:40:58;21.10;63.90
15384;DHT22;7790;53.022;12.968;2023-07-28T09:44:59;21.10;64.10
15384;DHT22;7790;53.022;12.968;2023-07-28T09:49:04;21.10;64.50
15384;DHT22;7790;53.022;12.968;2023-07-28T09:53:08;21.10;66.00
15384;DHT22;7790;53.022;12.968;2023-07-28T09:57:14;21.10;65.70
15384;DHT22;7790;53.022;12.968;2023-07-28T10:01:20;21.00;66.30
15384;DHT22;7790;53.022;12.968;2023-07-28T10:05:23;21.10;65.20
15384;DHT22;7790;53.022;12.968;2023-07-28T10:09:29;21.10;64.70
15384;DHT22;7790;53.022;12.968;2023-07-28T10:13:40;21.10;63.80
15384;DHT22;7790;53.022;12.968;2023-07-28T10:17:45;21.10;64.20
15384;DHT22;7790;53.022;12.968;2023-07-28T10:21:48;21.00;63.40
15384;DHT22;7790;53.022;12.968;2023-07-28T10:25:59;21.10;65.30
15384;DHT22;7790;53.022;12.968;2023-07-28T10:30:09;21.00;65.80
15384;DHT22;7790;53.022;12.968;2023-07-28T10:34:16;21.20;65.90
15384;DHT22;7790;53.022;12.968;2023-07-28T10:38:43;21.20;67.40
15384;DHT22;7790;53.022;12.968;2023-07-28T10:42:44;21.20;66.00
15384;DHT22;7790;53.022;12.968;2023-07-28T10:46:45;21.20;65.60
15384;DHT22;7790;53.022;12.968;2023-07-28T10:50:46;21.20;67.50
15384;DHT22;7790;53.022;12.968;2023-07-28T10:54:47;21.20;67.20
15384;DHT22;7790;53.022;12.968;2023-07-28T10:59:02;21.20;68.40
15384;DHT22;7790;53.022;12.968;2023-07-28T11:03:03;21.20;68.40
15384;DHT22;7790;53.022;12.968;2023-07-28T11:07:05;21.10;68.50
15384;DHT22;7790;53.022;12.968;2023-07-28T11:11:07;21.10;69.80
15384;DHT22;7790;53.022;12.968;2023-07-28T11:15:10;21.10;69.40
15384;DHT22;7790;53.022;12.968;2023-07-28T11:19:12;21.10;70.30
15384;DHT22;7790;53.022;12.968;2023-07-28T11:23:16;21.10;69.60
15384;DHT22;7790;53.022;12.968;2023-07-28T11:27:18;21.20;69.60
15384;DHT22;7790;53.022;12.968;2023-07-28T11:31:23;21.20;69.20
15384;DHT22;7790;53.022;12.968;2023-07-28T11:35:26;21.20;68.40
15384;DHT22;7790;53.022;12.968;2023-07-28T11:39:27;21.10;70.40
15384;DHT22;7790;53.022;12.968;2023-07-28T11:43:28;21.10;67.00
15384;DHT22;7790;53.022;12.968;2023-07-28T11:47:30;21.10;69.60
15384;DHT22;7790;53.022;12.968;2023-07-28T11:51:31;21.10;67.30
15384;DHT22;7790;53.022;12.968;2023-07-28T11:55:34;21.10;67.00
15384;DHT22;7790;53.022;12.968;2023-07-28T11:59:35;21.20;67.60
15384;DHT22;7790;53.022;12.968;2023-07-28T12:03:37;21.20;66.50
15384;DHT22;7790;53.022;12.968;2023-07-28T12:07:38;21.30;65.60
15384;DHT22;7790;53.022;12.968;2023-07-28T12:11:43;21.30;65.40
15384;DHT22;7790;53.022;12.968;2023-07-28T12:15:44;21.30;65.10
15384;DHT22;7790;53.022;12.968;2023-07-28T12:20:04;21.40;64.60
15384;DHT22;7790;53.022;12.968;2023-07-28T12:24:10;21.40;64.40
15384;DHT22;7790;53.022;12.968;2023-07-28T12:28:12;21.40;64.00
15384;DHT22;7790;53.022;12.968;2023-07-28T12:32:13;21.50;64.10
15384;DHT22;7790;53.022;12.968;2023-07-28T12:36:14;21.40;63.40
15384;DHT22;7790;53.022;12.968;2023-07-28T12:40:15;21.50;63.40
15384;DHT22;7790;53.022;12.968;2023-07-28T12:44:19;21.40;63.70
15384;DHT22;7790;53.022;12.968;2023-07-28T12:48:20;21.40;63.60
15384;DHT22;7790;53.022;12.968;2023-07-28T12:52:21;21.50;63.10
15384;DHT22;7790;53.022;12.968;2023-07-28T12:56:22;21.50;63.00
15384;DHT22;7790;53.022;12.968;2023-07-28T13:00:23;21.40;62.70
15384;DHT22;7790;53.022;12.968;2023-07-28T13:04:24;21.40;62.50
15384;DHT22;7790;53.022;12.968;2023-07-28T13:08:25;21.40;62.40
15384;DHT22;7790;53.022;12.968;2023-07-28T13:12:26;21.40;62.90
15384;DHT22;7790;53.022;12.968;2023-07-28T13:16:27;21.40;62.10
15384;DHT22;7790;53.022;12.968;2023-07-28T13:20:28;21.40;61.70
15384;DHT22;7790;53.022;12.968;2023-07-28T13:24:28;21.40;62.10
15384;DHT22;7790;53.022;12.968;2023-07-28T13:28:30;21.40;62.30
15384;DHT22;7790;53.022;12.968;2023-07-28T13:32:31;21.50;62.60
15384;DHT22;7790;53.022;12.968;2023-07-28T13:36:32;21.50;62.30
15384;DHT22;7790;53.022;12.968;2023-07-28T13:40:32;21.50;63.50
15384;DHT22;7790;53.022;12.968;2023-07-28T13:44:33;21.50;63.50
15384;DHT22;7790;53.022;12.968;2023-07-28T13:48:34;21.50;63.00
15384;DHT22;7790;53.022;12.968;2023-07-28T13:52:40;21.50;63.20
15384;DHT22;7790;53.022;12.968;2023-07-28T13:56:41;21.50;63.50
15384;DHT22;7790;53.022;12.968;2023-07-28T14:00:42;21.50;63.30
15384;DHT22;7790;53.022;12.968;2023-07-28T14:04:43;21.50;63.40
15384;DHT22;7790;53.022;12.968;2023-07-28T14:08:44;21.50;63.10
15384;DHT22;7790;53.022;12.968;2023-07-28T14:12:45;21.60;63.10
15384;DHT22;7790;53.022;12.968;2023-07-28T14:16:46;21.50;63.00
15384;DHT22;7790;53.022;12.968;2023-07-28T14:20:47;21.50;62.80
15384;DHT22;7790;53.022;12.968;2023-07-28T14:24:48;21.60;62.80
15384;DHT22;7790;53.022;12.968;2023-07-28T14:28:49;21.60;63.00
15384;DHT22;7790;53.022;12.968;2023-07-28T14:32:50;21.60;62.80
15384;DHT22;7790;53.022;12.968;2023-07-28T14:36:50;21.50;62.60
15384;DHT22;7790;53.022;12.968;2023-07-28T14:40:51;21.50;62.50
15384;DHT22;7790;53.022;12.968;2023-07-28T14:44:52;21.60;62.70
15384;DHT22;7790;53.022;12.968;2023-07-28T14:48:54;21.50;62.60
15384;DHT22;7790;53.022;12.968;2023-07-28T14:52:58;21.50;62.40
15384;DHT22;7790;53.022;12.968;2023-07-28T14:56:59;21.50;62.30
15384;DHT22;7790;53.022;12.968;2023-07-28T15:01:00;21.50;62.30
15384;DHT22;7790;53.022;12.968;2023-07-28T15:05:01;21.50;62.10
15384;DHT22;7790;53.022;12.968;2023-07-28T15:09:02;21.50;61.80
15384;DHT22;7790;53.022;12.968;2023-07-28T15:13:03;21.50;61.80
15384;DHT22;7790;53.022;12.968;2023-07-28T15:17:05;21.50;61.70
15384;DHT22;7790;53.022;12.968;2023-07-28T15:21:06;21.50;61.70
15384;DHT22;7790;53.022;12.968;2023-07-28T15:25:07;21.50;61.60
15384;DHT22;7790;53.022;12.968;2023-07-28T15:29:08;21.50;62.00
15384;DHT22;7790;53.022;12.968;2023-07-28T15:33:09;21.50;61.70
15384;DHT22;7790;53.022;12.968;2023-07-28T15:37:10;21.60;61.80
15384;DHT22;7790;53.022;12.968;2023-07-28T15:41:11;21.60;62.50
15384;DHT22;7790;53.022;12.968;2023-07-28T15:45:13;21.50;63.30
15384;DHT22;7790;53.022;12.968;2023-07-28T15:49:13;21.60;64.40
15384;DHT22;7790;53.022;12.968;2023-07-28T15:53:15;21.60;66.30
15384;DHT22;7790;53.022;12.968;2023-07-28T15:57:16;21.60;67.70
15384;DHT22;7790;53.022;12.968;2023-07-28T16:01:18;21.60;68.60
15384;DHT22;7790;53.022;12.968;2023-07-28T16:05:18;21.50;70.90
15384;DHT22;7790;53.022;12.968;2023-07-28T16:09:19;21.50;69.50
15384;DHT22;7790;53.022;12.968;2023-07-28T16:13:20;21.50;71.80
15384;DHT22;7790;53.022;12.968;2023-07-28T16:17:22;21.60;71.60
15384;DHT22;7790;53.022;12.968;2023-07-28T16:21:23;21.60;71.30
15384;DHT22;7790;53.022;12.968;2023-07-28T16:25:24;21.50;70.40
15384;DHT22;7790;53.022;12.968;2023-07-28T16:29:25;21.50;70.00
15384;DHT22;7790;53.022;12.968;2023-07-28T16:33:26;21.60;71.20
15384;DHT22;7790;53.022;12.968;2023-07-28T16:37:27;21.60;70.60
15384;DHT22;7790;53.022;12.968;2023-07-28T16:41:28;21.50;71.30
15384;DHT22;7790;53.022;12.968;2023-07-28T16:45:29;21.60;70.60
15384;DHT22;7790;53.022;12.968;2023-07-28T16:49:30;21.70;69.50
15384;DHT22;7790;53.022;12.968;2023-07-28T16:53:30;21.70;68.50
15384;DHT22;7790;53.022;12.968;2023-07-28T16:57:31;21.70;68.30
15384;DHT22;7790;53.022;12.968;2023-07-28T17:01:32;21.70;68.70
15384;DHT22;7790;53.022;12.968;2023-07-28T17:05:33;21.70;68.30
15384;DHT22;7790;53.022;12.968;2023-07-28T17:09:35;21.70;68.20
15384;DHT22;7790;53.022;12.968;2023-07-28T17:13:35;21.80;67.90
15384;DHT22;7790;53.022;12.968;2023-07-28T17:17:36;21.70;68.30
15384;DHT22;7790;53.022;12.968;2023-07-28T17:21:37;21.70;68.00
15384;DHT22;7790;53.022;12.968;2023-07-28T17:25:38;21.80;67.90
15384;DHT22;7790;53.022;12.968;2023-07-28T17:29:39;21.70;68.10
15384;DHT22;7790;53.022;12.968;2023-07-28T17:33:40;21.70;68.70
15384;DHT22;7790;53.022;12.968;2023-07-28T17:37:41;21.70;67.70
15384;DHT22;7790;53.022;12.968;2023-07-28T17:41:42;21.70;67.80
15384;DHT22;7790;53.022;12.968;2023-07-28T17:45:43;21.70;67.80
15384;DHT22;7790;53.022;12.968;2023-07-28T17:49:44;21.70;67.50
15384;DHT22;7790;53.022;12.968;2023-07-28T17:53:45;21.70;67.50
15384;DHT22;7790;53.022;12.968;2023-07-28T17:57:45;21.70;67.30
15384;DHT22;7790;53.022;12.968;2023-07-28T18:01:46;21.70;67.80
15384;DHT22;7790;53.022;12.968;2023-07-28T18:05:47;21.70;67.80
15384;DHT22;7790;53.022;12.968;2023-07-28T18:09:48;21.70;67.90
15384;DHT22;7790;53.022;12.968;2023-07-28T18:13:49;21.70;67.70
15384;DHT22;7790;53.022;12.968;2023-07-28T18:17:50;21.70;68.20
15384;DHT22;7790;53.022;12.968;2023-07-28T18:21:51;21.70;68.20
15384;DHT22;7790;53.022;12.968;2023-07-28T18:25:52;21.70;67.00
15384;DHT22;7790;53.022;12.968;2023-07-28T18:29:53;21.70;67.50
15384;DHT22;7790;53.022;12.968;2023-07-28T18:33:54;21.60;67.50
15384;DHT22;7790;53.022;12.968;2023-07-28T18:37:55;21.60;67.80
15384;DHT22;7790;53.022;12.968;2023-07-28T18:41:56;21.70;67.20
15384;DHT22;7790;53.022;12.968;2023-07-28T18:45:57;21.70;67.90
15384;DHT22;7790;53.022;12.968;2023-07-28T18:49:58;21.70;67.50
15384;DHT22;7790;53.022;12.968;2023-07-28T18:53:59;21.60;67.70
15384;DHT22;7790;53.022;12.968;2023-07-28T18:58:00;21.70;68.40
15384;DHT22;7790;53.022;12.968;2023-07-28T19:02:01;21.60;67.20
15384;DHT22;7790;53.022;12.968;2023-07-28T19:06:02;21.60;66.60
15384;DHT22;7790;53.022;12.968;2023-07-28T19:10:04;21.60;68.10
15384;DHT22;7790;53.022;12.968;2023-07-28T19:14:05;21.50;67.30
15384;DHT22;7790;53.022;12.968;2023-07-28T19:18:06;21.60;67.30
15384;DHT22;7790;53.022;12.968;2023-07-28T19:22:07;21.50;67.40
15384;DHT22;7790;53.022;12.968;2023-07-28T19:26:09;21.50;68.40
15384;DHT22;7790;53.022;12.968;2023-07-28T19:30:11;21.60;67.80
15384;DHT22;7790;53.022;12.968;2023-07-28T19:34:13;21.60;67.20
15384;DHT22;7790;53.022;12.968;2023-07-28T19:38:14;21.50;66.80
15384;DHT22;7790;53.022;12.968;2023-07-28T19:42:15;21.50;67.10
15384;DHT22;7790;53.022;12.968;2023-07-28T19:46:16;21.50;67.10
15384;DHT22;7790;53.022;12.968;2023-07-28T19:50:17;21.50;67.30
15384;DHT22;7790;53.022;12.968;2023-07-28T19:54:18;21.40;67.80
15384;DHT22;7790;53.022;12.968;2023-07-28T19:58:20;21.40;67.30
15384;DHT22;7790;53.022;12.968;2023-07-28T20:02:21;21.40;67.90
15384;DHT22;7790;53.022;12.968;2023-07-28T20:06:22;21.50;69.20
15384;DHT22;7790;53.022;12.968;2023-07-28T20:10:23;21.60;69.70
15384;DHT22;7790;53.022;12.968;2023-07-28T20:14:24;21.60;69.20
15384;DHT22;7790;53.022;12.968;2023-07-28T20:18:25;21.60;69.20
15384;DHT22;7790;53.022;12.968;2023-07-28T20:22:26;21.60;69.40
15384;DHT22;7790;53.022;12.968;2023-07-28T20:26:27;21.60;69.60
15384;DHT22;7790;53.022;12.968;2023-07-28T20:30:28;21.60;69.90
15384;DHT22;7790;53.022;12.968;2023-07-28T20:34:29;21.60;69.90
15384;DHT22;7790;53.022;12.968;2023-07-28T20:38:30;21.60;70.10
15384;DHT22;7790;53.022;12.968;2023-07-28T20:42:30;21.60;70.00
15384;DHT22;7790;53.022;12.968;2023-07-28T20:46:31;21.60;70.40
15384;DHT22;7790;53.022;12.968;2023-07-28T20:50:32;21.50;69.50
15384;DHT22;7790;53.022;12.968;2023-07-28T20:54:33;21.50;69.60
15384;DHT22;7790;53.022;12.968;2023-07-28T20:58:34;21.60;69.60
15384;DHT22;7790;53.022;12.968;2023-07-28T21:02:35;21.50;69.20
15384;DHT22;7790;53.022;12.968;2023-07-28T21:06:36;21.60;69.20
15384;DHT22;7790;53.022;12.968;2023-07-28T21:10:37;21.50;68.80
15384;DHT22;7790;53.022;12.968;2023-07-28T21:14:38;21.50;68.70
15384;DHT22;7790;53.022;12.968;2023-07-28T21:18:41;21.50;68.80
15384;DHT22;7790;53.022;12.968;2023-07-28T21:22:42;21.60;67.80
15384;DHT22;7790;53.022;12.968;2023-07-28T21:26:43;21.60;67.80
15384;DHT22;7790;53.022;12.968;2023-07-28T21:30:44;21.60;67.70
15384;DHT22;7790;53.022;12.968;2023-07-28T21:34:46;21.60;67.50
15384;DHT22;7790;53.022;12.968;2023-07-28T21:38:47;21.60;67.40
15384;DHT22;7790;53.022;12.968;2023-07-28T21:42:48;21.60;67.30
15384;DHT22;7790;53.022;12.968;2023-07-28T21:46:49;21.60;67.30
15384;DHT22;7790;53.022;12.968;2023-07-28T21:50:50;21.50;66.90
15384;DHT22;7790;53.022;12.968;2023-07-28T21:54:51;21.60;67.10
15384;DHT22;7790;53.022;12.968;2023-07-28T21:58:52;21.60;67.00
15384;DHT22;7790;53.022;12.968;2023-07-28T22:02:53;21.50;66.80
15384;DHT22;7790;53.022;12.968;2023-07-28T22:06:54;21.60;66.80
15384;DHT22;7790;53.022;12.968;2023-07-28T22:10:56;21.60;66.80
15384;DHT22;7790;53.022;12.968;2023-07-28T22:14:57;21.60;66.50
15384;DHT22;7790;53.022;12.968;2023-07-28T22:18:57;21.50;66.40
15384;DHT22;7790;53.022;12.968;2023-07-28T22:22:58;21.50;66.40
15384;DHT22;7790;53.022;12.968;2023-07-28T22:26:59;21.50;66.30
15384;DHT22;7790;53.022;12.968;2023-07-28T22:31:00;21.50;66.20
15384;DHT22;7790;53.022;12.968;2023-07-28T22:35:01;21.50;66.00
15384;DHT22;7790;53.022;12.968;2023-07-28T22:39:03;21.50;66.20
15384;DHT22;7790;53.022;12.968;2023-07-28T22:43:04;21.50;66.00
15384;DHT22;7790;53.022;12.968;2023-07-28T22:47:05;21.50;65.80
15384;DHT22;7790;53.022;12.968;2023-07-28T22:51:06;21.50;65.80
15384;DHT22;7790;53.022;12.968;2023-07-28T22:55:07;21.50;65.80
15384;DHT22;7790;53.022;12.968;2023-07-28T22:59:08;21.50;65.80
15384;DHT22;7790;53.022;12.968;2023-07-28T23:03:09;21.50;65.70
15384;DHT22;7790;53.022;12.968;2023-07-28T23:07:11;21.50;65.70
15384;DHT22;7790;53.022;12.968;2023-07-28T23:11:12;21.50;65.60
15384;DHT22;7790;53.022;12.968;2023-07-28T23:15:13;21.50;65.60
15384;DHT22;7790;53.022;12.968;2023-07-28T23:19:14;21.40;65.60
15384;DHT22;7790;53.022;12.968;2023-07-28T23:23:16;21.50;65.60
15384;DHT22;7790;53.022;12.968;2023-07-28T23:27:17;21.50;65.60
15384;DHT22;7790;53.022;12.968;2023-07-28T23:31:21;21.50;65.60
15384;DHT22;7790;53.022;12.968;2023-07-28T23:35:24;21.50;65.40
15384;DHT22;7790;53.022;12.968;2023-07-28T23:39:25;21.50;65.50
15384;DHT22;7790;53.022;12.968;2023-07-28T23:43:26;21.50;65.40
15384;DHT22;7790;53.022;12.968;2023-07-28T23:47:27;21.50;65.40
15384;DHT22;7790;53.022;12.968;2023-07-28T23:51:28;21.40;65.40
15384;DHT22;7790;53.022;12.968;2023-07-28T23:55:29;21.50;65.40
15384;DHT22;7790;53.022;12.968;2023-07-28T23:59:31;21.50;65.40
